sensor_id;sensor_type;location;lat;lon;timestamp;pressure;altitude;pressure_sealevel;temperature;humidity
11124;BME280;5616;42.692;23.312;2022-11-10T00:01:15;95789.84;;;9.19;86.79
11124;BME280;5616;42.692;23.312;2022-11-10T00:04:01;95790.63;;;9.19;87.77
11124;BME280;5616;42.692;23.312;2022-11-10T00:06:46;95799.19;;;9.28;86.57
11124;BME280;5616;42.692;23.312;2022-11-10T00:09:33;95796.78;;;9.27;86.68
11124;BME280;5616;42.692;23.312;2022-11-10T00:12:19;95797.09;;;9.23;86.27
11124;BME280;5616;42.692;23.312;2022-11-10T00:15:06;95799.66;;;9.23;86.47
11124;BME280;5616;42.692;23.312;2022-11-10T00:18:09;95801.69;;;9.12;86.08
11124;BME280;5616;42.692;23.312;2022-11-10T00:21:01;95801.97;;;9.01;86.50
11124;BME280;5616;42.692;23.312;2022-11-10T00:23:46;95801.97;;;9.01;86.67
11124;BME280;5616;42.692;23.312;2022-11-10T00:26:33;95802.63;;;9.03;86.19
11124;BME280;5616;42.692;23.312;2022-11-10T00:29:18;95793.88;;;8.96;87.06
11124;BME280;5616;42.692;23.312;2022-11-10T00:32:04;95790.97;;;8.91;86.71
11124;BME280;5616;42.692;23.312;2022-11-10T00:34:50;95794.53;;;8.90;86.65
11124;BME280;5616;42.692;23.312;2022-11-10T00:37:35;95790.13;;;8.82;87.53
11124;BME280;5616;42.692;23.312;2022-11-10T00:40:20;95789.31;;;8.82;87.22
11124;BME280;5616;42.692;23.312;2022-11-10T00:43:07;95787.91;;;8.87;87.33
11124;BME280;5616;42.692;23.312;2022-11-10T00:45:53;95777.69;;;8.78;87.58
11124;BME280;5616;42.692;23.312;2022-11-10T00:48:38;95781.63;;;8.64;88.69
11124;BME280;5616;42.692;23.312;2022-11-10T00:51:25;95775.22;;;8.68;88.10
11124;BME280;5616;42.692;23.312;2022-11-10T00:54:11;95770.91;;;8.69;88.10
11124;BME280;5616;42.692;23.312;2022-11-10T00:56:56;95777.03;;;8.76;87.52
11124;BME280;5616;42.692;23.312;2022-11-10T00:59:43;95771.91;;;8.76;88.24
11124;BME280;5616;42.692;23.312;2022-11-10T01:02:28;95771.91;;;8.76;88.03
11124;BME280;5616;42.692;23.312;2022-11-10T01:05:13;95774.59;;;8.66;88.41
11124;BME280;5616;42.692;23.312;2022-11-10T01:07:59;95769.28;;;8.68;88.34
11124;BME280;5616;42.692;23.312;2022-11-10T01:10:44;95779.88;;;8.65;88.42
11124;BME280;5616;42.692;23.312;2022-11-10T01:13:30;95766.19;;;8.38;88.85
11124;BME280;5616;42.692;23.312;2022-11-10T01:16:19;95763.66;;;8.46;89.20
11124;BME280;5616;42.692;23.312;2022-11-10T01:19:05;95765.72;;;8.43;89.60
11124;BME280;5616;42.692;23.312;2022-11-10T01:21:50;95771.38;;;8.46;90.22
11124;BME280;5616;42.692;23.312;2022-11-10T01:24:36;95772.19;;;8.47;89.74
11124;BME280;5616;42.692;23.312;2022-11-10T01:27:21;95766.47;;;8.35;89.65
11124;BME280;5616;42.692;23.312;2022-11-10T01:30:07;95761.41;;;8.43;89.29
11124;BME280;5616;42.692;23.312;2022-11-10T01:32:54;95764.66;;;8.45;90.20
11124;BME280;5616;42.692;23.312;2022-11-10T01:35:40;95760.19;;;8.55;88.93
11124;BME280;5616;42.692;23.312;2022-11-10T01:38:26;95757.28;;;8.50;88.81
11124;BME280;5616;42.692;23.312;2022-11-10T01:41:13;95746.19;;;8.32;89.80
11124;BME280;5616;42.692;23.312;2022-11-10T01:44:15;95771.50;;;8.37;89.96
11124;BME280;5616;42.692;23.312;2022-11-10T01:47:01;95768.03;;;8.28;90.44
11124;BME280;5616;42.692;23.312;2022-11-10T01:49:48;95765.91;;;8.24;90.17
11124;BME280;5616;42.692;23.312;2022-11-10T01:52:33;95762.50;;;8.23;89.95
11124;BME280;5616;42.692;23.312;2022-11-10T01:55:20;95764.94;;;8.25;90.38
11124;BME280;5616;42.692;23.312;2022-11-10T01:58:05;95754.81;;;8.23;91.18
11124;BME280;5616;42.692;23.312;2022-11-10T02:00:52;95757.16;;;8.34;90.54
11124;BME280;5616;42.692;23.312;2022-11-10T02:03:41;95761.56;;;8.24;89.18
11124;BME280;5616;42.692;23.312;2022-11-10T02:06:32;95762.28;;;8.17;89.77
11124;BME280;5616;42.692;23.312;2022-11-10T02:09:19;95759.78;;;8.25;89.65
11124;BME280;5616;42.692;23.312;2022-11-10T02:12:05;95763.84;;;8.10;89.53
11124;BME280;5616;42.692;23.312;2022-11-10T02:14:50;95770.75;;;8.09;90.41
11124;BME280;5616;42.692;23.312;2022-11-10T02:17:36;95769.28;;;8.07;89.73
11124;BME280;5616;42.692;23.312;2022-11-10T02:20:21;95774.81;;;7.94;90.32
11124;BME280;5616;42.692;23.312;2022-11-10T02:23:12;95769.22;;;7.98;89.71
11124;BME280;5616;42.692;23.312;2022-11-10T02:25:58;95772.75;;;7.97;90.24
11124;BME280;5616;42.692;23.312;2022-11-10T02:28:44;95777.44;;;8.02;89.72
11124;BME280;5616;42.692;23.312;2022-11-10T02:31:29;95776.72;;;8.10;89.46
11124;BME280;5616;42.692;23.312;2022-11-10T02:34:14;95786.47;;;8.06;88.71
11124;BME280;5616;42.692;23.312;2022-11-10T02:37:00;95779.38;;;8.00;89.63
11124;BME280;5616;42.692;23.312;2022-11-10T02:39:46;95785.16;;;8.02;89.63
11124;BME280;5616;42.692;23.312;2022-11-10T02:42:32;95785.81;;;8.04;88.80
11124;BME280;5616;42.692;23.312;2022-11-10T02:45:17;95788.75;;;8.09;88.36
11124;BME280;5616;42.692;23.312;2022-11-10T02:48:02;95787.31;;;7.89;89.19
11124;BME280;5616;42.692;23.312;2022-11-10T02:50:48;95785.69;;;7.88;89.34
11124;BME280;5616;42.692;23.312;2022-11-10T02:53:33;95783.19;;;7.96;88.98
11124;BME280;5616;42.692;23.312;2022-11-10T02:56:20;95785.09;;;7.94;90.02
11124;BME280;5616;42.692;23.312;2022-11-10T02:59:05;95785.97;;;7.85;89.78
11124;BME280;5616;42.692;23.312;2022-11-10T03:01:50;95790.44;;;7.83;90.63
11124;BME280;5616;42.692;23.312;2022-11-10T03:04:36;95796.25;;;7.85;89.92
11124;BME280;5616;42.692;23.312;2022-11-10T03:07:21;95781.41;;;7.96;89.76
11124;BME280;5616;42.692;23.312;2022-11-10T03:10:07;95791.50;;;7.90;89.30
11124;BME280;5616;42.692;23.312;2022-11-10T03:12:55;95788.41;;;7.86;89.64
11124;BME280;5616;42.692;23.312;2022-11-10T03:15:40;95795.19;;;7.87;90.15
11124;BME280;5616;42.692;23.312;2022-11-10T03:18:25;95794.94;;;7.81;90.19
11124;BME280;5616;42.692;23.312;2022-11-10T03:21:10;95790.03;;;7.87;90.35
11124;BME280;5616;42.692;23.312;2022-11-10T03:23:56;95796.84;;;7.79;90.46
11124;BME280;5616;42.692;23.312;2022-11-10T03:26:41;95801.19;;;7.78;91.04
11124;BME280;5616;42.692;23.312;2022-11-10T03:29:28;95795.00;;;7.89;90.46
11124;BME280;5616;42.692;23.312;2022-11-10T03:32:13;95802.66;;;7.98;90.84
11124;BME280;5616;42.692;23.312;2022-11-10T03:34:59;95801.19;;;7.96;90.29
11124;BME280;5616;42.692;23.312;2022-11-10T03:37:44;95796.19;;;7.94;90.47
11124;BME280;5616;42.692;23.312;2022-11-10T03:40:29;95803.97;;;7.85;91.76
11124;BME280;5616;42.692;23.312;2022-11-10T03:43:15;95808.59;;;7.81;91.52
11124;BME280;5616;42.692;23.312;2022-11-10T03:46:02;95804.66;;;7.87;91.63
11124;BME280;5616;42.692;23.312;2022-11-10T03:48:47;95803.47;;;7.81;91.56
11124;BME280;5616;42.692;23.312;2022-11-10T03:51:32;95807.88;;;7.89;91.85
11124;BME280;5616;42.692;23.312;2022-11-10T03:54:17;95805.88;;;7.83;91.84
11124;BME280;5616;42.692;23.312;2022-11-10T03:57:03;95812.09;;;7.63;92.72
11124;BME280;5616;42.692;23.312;2022-11-10T03:59:48;95814.88;;;7.69;91.26
11124;BME280;5616;42.692;23.312;2022-11-10T04:02:35;95817.63;;;7.68;92.24
11124;BME280;5616;42.692;23.312;2022-11-10T04:05:21;95815.78;;;7.60;91.11
11124;BME280;5616;42.692;23.312;2022-11-10T04:08:23;95817.16;;;7.55;91.73
11124;BME280;5616;42.692;23.312;2022-11-10T04:11:22;95819.72;;;7.55;91.39
11124;BME280;5616;42.692;23.312;2022-11-10T04:14:26;95822.59;;;7.52;91.46
11124;BME280;5616;42.692;23.312;2022-11-10T04:17:29;95817.81;;;7.57;91.41
11124;BME280;5616;42.692;23.312;2022-11-10T04:20:16;95816.16;;;7.65;91.20
11124;BME280;5616;42.692;23.312;2022-11-10T04:23:01;95816.34;;;7.54;91.97
11124;BME280;5616;42.692;23.312;2022-11-10T04:26:04;95814.06;;;7.51;91.76
11124;BME280;5616;42.692;23.312;2022-11-10T04:29:09;95821.09;;;7.49;91.11
11124;BME280;5616;42.692;23.312;2022-11-10T04:31:54;95835.16;;;7.55;91.09
11124;BME280;5616;42.692;23.312;2022-11-10T04:34:40;95826.09;;;7.51;91.51
11124;BME280;5616;42.692;23.312;2022-11-10T04:37:26;95829.81;;;7.66;90.94
11124;BME280;5616;42.692;23.312;2022-11-10T04:40:12;95826.66;;;7.72;90.36
11124;BME280;5616;42.692;23.312;2022-11-10T04:42:57;95825.91;;;7.62;90.78
11124;BME280;5616;42.692;23.312;2022-11-10T04:45:42;95823.00;;;7.74;90.94
11124;BME280;5616;42.692;23.312;2022-11-10T04:48:29;95829.25;;;7.89;89.43
11124;BME280;5616;42.692;23.312;2022-11-10T04:51:16;95830.72;;;7.92;90.09
11124;BME280;5616;42.692;23.312;2022-11-10T04:54:04;95827.19;;;7.93;89.80
11124;BME280;5616;42.692;23.312;2022-11-10T04:56:50;95835.22;;;7.90;90.53
11124;BME280;5616;42.692;23.312;2022-11-10T04:59:35;95829.75;;;7.93;89.83
11124;BME280;5616;42.692;23.312;2022-11-10T05:02:21;95829.63;;;7.94;89.81
11124;BME280;5616;42.692;23.312;2022-11-10T05:05:07;95832.41;;;8.01;89.71
11124;BME280;5616;42.692;23.312;2022-11-10T05:07:52;95826.25;;;7.94;89.50
11124;BME280;5616;42.692;23.312;2022-11-10T05:10:39;95842.41;;;8.04;90.10
11124;BME280;5616;42.692;23.312;2022-11-10T05:13:24;95837.03;;;8.15;89.23
11124;BME280;5616;42.692;23.312;2022-11-10T05:16:10;95847.34;;;8.15;89.63
11124;BME280;5616;42.692;23.312;2022-11-10T05:18:56;95838.00;;;8.14;88.19
11124;BME280;5616;42.692;23.312;2022-11-10T05:21:41;95845.63;;;8.06;89.58
11124;BME280;5616;42.692;23.312;2022-11-10T05:24:26;95843.50;;;8.01;88.28
11124;BME280;5616;42.692;23.312;2022-11-10T05:27:13;95843.75;;;8.08;89.10
11124;BME280;5616;42.692;23.312;2022-11-10T05:29:58;95846.53;;;7.97;89.02
11124;BME280;5616;42.692;23.312;2022-11-10T05:32:44;95844.16;;;8.03;89.25
11124;BME280;5616;42.692;23.312;2022-11-10T05:35:29;95838.53;;;8.00;89.56
11124;BME280;5616;42.692;23.312;2022-11-10T05:38:15;95839.34;;;8.00;89.32
11124;BME280;5616;42.692;23.312;2022-11-10T05:41:00;95834.91;;;8.11;89.58
11124;BME280;5616;42.692;23.312;2022-11-10T05:43:47;95844.19;;;8.21;90.05
11124;BME280;5616;42.692;23.312;2022-11-10T05:46:32;95849.69;;;8.26;89.93
11124;BME280;5616;42.692;23.312;2022-11-10T05:49:18;95847.06;;;8.36;89.42
11124;BME280;5616;42.692;23.312;2022-11-10T05:52:03;95856.53;;;8.53;90.90
11124;BME280;5616;42.692;23.312;2022-11-10T05:54:49;95863.22;;;8.64;90.61
11124;BME280;5616;42.692;23.312;2022-11-10T05:57:34;95860.38;;;8.75;91.97
11124;BME280;5616;42.692;23.312;2022-11-10T06:00:23;95863.59;;;8.69;93.63
11124;BME280;5616;42.692;23.312;2022-11-10T06:03:13;95863.59;;;8.69;95.58
11124;BME280;5616;42.692;23.312;2022-11-10T06:05:58;95868.91;;;8.75;95.39
11124;BME280;5616;42.692;23.312;2022-11-10T06:08:44;95873.84;;;8.86;95.14
11124;BME280;5616;42.692;23.312;2022-11-10T06:11:29;95870.25;;;9.05;95.12
11124;BME280;5616;42.692;23.312;2022-11-10T06:14:14;95879.03;;;9.20;93.63
11124;BME280;5616;42.692;23.312;2022-11-10T06:17:01;95888.38;;;9.21;93.29
11124;BME280;5616;42.692;23.312;2022-11-10T06:19:46;95891.44;;;9.24;91.59
11124;BME280;5616;42.692;23.312;2022-11-10T06:22:32;95895.97;;;9.22;90.15
11124;BME280;5616;42.692;23.312;2022-11-10T06:25:17;95896.66;;;9.33;88.31
11124;BME280;5616;42.692;23.312;2022-11-10T06:28:04;95895.97;;;9.22;85.73
11124;BME280;5616;42.692;23.312;2022-11-10T06:30:49;95914.50;;;9.26;85.03
11124;BME280;5616;42.692;23.312;2022-11-10T06:33:36;95906.22;;;9.40;84.81
11124;BME280;5616;42.692;23.312;2022-11-10T06:36:22;95913.19;;;9.48;87.73
11124;BME280;5616;42.692;23.312;2022-11-10T06:39:08;95913.66;;;9.51;88.13
11124;BME280;5616;42.692;23.312;2022-11-10T06:41:53;95926.22;;;9.46;88.57
11124;BME280;5616;42.692;23.312;2022-11-10T06:44:38;95924.31;;;9.56;88.45
11124;BME280;5616;42.692;23.312;2022-11-10T06:47:24;95924.06;;;9.67;88.74
11124;BME280;5616;42.692;23.312;2022-11-10T06:50:10;95926.06;;;9.81;88.19
11124;BME280;5616;42.692;23.312;2022-11-10T06:52:56;95933.84;;;9.90;88.05
11124;BME280;5616;42.692;23.312;2022-11-10T06:55:43;95918.03;;;9.84;88.15
11124;BME280;5616;42.692;23.312;2022-11-10T06:58:28;95931.31;;;10.06;87.60
11124;BME280;5616;42.692;23.312;2022-11-10T07:01:13;95928.94;;;10.12;87.60
11124;BME280;5616;42.692;23.312;2022-11-10T07:03:59;95930.03;;;10.10;87.25
11124;BME280;5616;42.692;23.312;2022-11-10T07:06:46;95928.16;;;10.20;86.95
11124;BME280;5616;42.692;23.312;2022-11-10T07:09:31;95925.25;;;10.23;86.22
11124;BME280;5616;42.692;23.312;2022-11-10T07:12:17;95936.53;;;10.14;86.47
11124;BME280;5616;42.692;23.312;2022-11-10T07:15:03;95935.59;;;10.23;86.21
11124;BME280;5616;42.692;23.312;2022-11-10T07:17:48;95940.44;;;10.26;85.78
11124;BME280;5616;42.692;23.312;2022-11-10T07:20:34;95937.53;;;10.29;85.82
11124;BME280;5616;42.692;23.312;2022-11-10T07:23:20;95948.50;;;10.31;86.50
11124;BME280;5616;42.692;23.312;2022-11-10T07:26:05;95946.59;;;10.41;86.05
11124;BME280;5616;42.692;23.312;2022-11-10T07:28:51;95944.34;;;10.46;85.70
11124;BME280;5616;42.692;23.312;2022-11-10T07:31:36;95942.59;;;10.55;85.19
11124;BME280;5616;42.692;23.312;2022-11-10T07:34:21;95941.47;;;10.65;85.37
11124;BME280;5616;42.692;23.312;2022-11-10T07:37:07;95947.28;;;10.75;85.32
11124;BME280;5616;42.692;23.312;2022-11-10T07:39:54;95942.63;;;10.79;84.91
11124;BME280;5616;42.692;23.312;2022-11-10T07:42:39;95946.66;;;10.81;84.74
11124;BME280;5616;42.692;23.312;2022-11-10T07:45:25;95936.31;;;10.89;84.01
11124;BME280;5616;42.692;23.312;2022-11-10T07:48:11;95939.88;;;10.96;83.18
11124;BME280;5616;42.692;23.312;2022-11-10T07:50:56;95942.13;;;10.99;83.39
11124;BME280;5616;42.692;23.312;2022-11-10T07:53:41;95938.72;;;11.07;83.13
11124;BME280;5616;42.692;23.312;2022-11-10T07:56:28;95928.06;;;11.10;82.69
11124;BME280;5616;42.692;23.312;2022-11-10T07:59:13;95939.22;;;11.19;82.56
11124;BME280;5616;42.692;23.312;2022-11-10T08:01:59;95942.13;;;11.32;82.56
11124;BME280;5616;42.692;23.312;2022-11-10T08:04:44;95933.06;;;11.28;82.20
11124;BME280;5616;42.692;23.312;2022-11-10T08:07:29;95937.09;;;11.30;82.38
11124;BME280;5616;42.692;23.312;2022-11-10T08:10:15;95928.88;;;11.35;82.02
11124;BME280;5616;42.692;23.312;2022-11-10T08:13:03;95935.63;;;11.44;81.81
11124;BME280;5616;42.692;23.312;2022-11-10T08:15:49;95928.34;;;11.39;81.74
11124;BME280;5616;42.692;23.312;2022-11-10T08:18:34;95930.13;;;11.47;81.50
11124;BME280;5616;42.692;23.312;2022-11-10T08:21:20;95932.06;;;11.53;82.23
11124;BME280;5616;42.692;23.312;2022-11-10T08:24:05;95942.03;;;11.72;81.85
11124;BME280;5616;42.692;23.312;2022-11-10T08:26:51;95951.28;;;11.75;80.43
11124;BME280;5616;42.692;23.312;2022-11-10T08:29:38;95937.50;;;11.66;80.99
11124;BME280;5616;42.692;23.312;2022-11-10T08:32:23;95943.31;;;11.84;80.89
11124;BME280;5616;42.692;23.312;2022-11-10T08:35:08;95944.50;;;12.04;80.92
11124;BME280;5616;42.692;23.312;2022-11-10T08:37:54;95944.63;;;12.19;78.83
11124;BME280;5616;42.692;23.312;2022-11-10T08:40:40;95943.47;;;12.21;79.39
11124;BME280;5616;42.692;23.312;2022-11-10T08:43:25;95940.69;;;12.23;79.10
11124;BME280;5616;42.692;23.312;2022-11-10T08:46:12;95943.91;;;12.25;78.74
11124;BME280;5616;42.692;23.312;2022-11-10T08:48:58;95939.94;;;12.45;78.56
11124;BME280;5616;42.692;23.312;2022-11-10T08:51:43;95942.06;;;12.42;79.10
11124;BME280;5616;42.692;23.312;2022-11-10T08:54:28;95945.47;;;12.42;78.87
11124;BME280;5616;42.692;23.312;2022-11-10T08:57:14;95947.66;;;12.53;78.88
11124;BME280;5616;42.692;23.312;2022-11-10T08:59:59;95947.16;;;12.58;78.66
11124;BME280;5616;42.692;23.312;2022-11-10T09:02:46;95950.50;;;12.66;78.10
11124;BME280;5616;42.692;23.312;2022-11-10T09:05:32;95949.72;;;12.80;77.59
11124;BME280;5616;42.692;23.312;2022-11-10T09:08:19;95946.81;;;12.83;77.79
11124;BME280;5616;42.692;23.312;2022-11-10T09:11:04;95957.47;;;12.88;77.58
11124;BME280;5616;42.692;23.312;2022-11-10T09:13:49;95946.66;;;13.08;76.89
11124;BME280;5616;42.692;23.312;2022-11-10T09:16:34;95948.22;;;13.17;75.57
11124;BME280;5616;42.692;23.312;2022-11-10T09:19:21;95955.88;;;13.25;75.29
11124;BME280;5616;42.692;23.312;2022-11-10T09:22:06;95947.34;;;13.24;75.54
11124;BME280;5616;42.692;23.312;2022-11-10T09:24:52;95943.75;;;13.25;75.43
11124;BME280;5616;42.692;23.312;2022-11-10T09:27:38;95940.25;;;13.33;75.37
11124;BME280;5616;42.692;23.312;2022-11-10T09:30:23;95945.28;;;13.34;74.09
11124;BME280;5616;42.692;23.312;2022-11-10T09:33:09;95938.50;;;13.48;74.61
11124;BME280;5616;42.692;23.312;2022-11-10T09:35:59;95930.72;;;13.48;73.61
11124;BME280;5616;42.692;23.312;2022-11-10T09:38:45;95934.56;;;13.52;73.92
11124;BME280;5616;42.692;23.312;2022-11-10T09:41:30;95933.31;;;13.48;73.23
11124;BME280;5616;42.692;23.312;2022-11-10T09:44:20;95936.81;;;13.55;73.88
11124;BME280;5616;42.692;23.312;2022-11-10T09:47:10;95926.78;;;13.37;74.52
11124;BME280;5616;42.692;23.312;2022-11-10T09:49:59;95924.81;;;13.54;73.82
11124;BME280;5616;42.692;23.312;2022-11-10T09:52:48;95928.03;;;13.71;73.97
11124;BME280;5616;42.692;23.312;2022-11-10T09:55:39;95923.22;;;13.68;73.30
11124;BME280;5616;42.692;23.312;2022-11-10T09:58:32;95924.28;;;13.73;72.82
11124;BME280;5616;42.692;23.312;2022-11-10T10:01:28;95923.28;;;13.89;72.03
11124;BME280;5616;42.692;23.312;2022-11-10T10:04:28;95923.56;;;13.94;72.65
11124;BME280;5616;42.692;23.312;2022-11-10T10:07:21;95914.59;;;13.96;71.75
11124;BME280;5616;42.692;23.312;2022-11-10T10:10:14;95920.44;;;13.98;71.51
11124;BME280;5616;42.692;23.312;2022-11-10T10:13:19;95915.66;;;14.02;71.45
11124;BME280;5616;42.692;23.312;2022-11-10T10:16:11;95915.91;;;14.22;71.04
11124;BME280;5616;42.692;23.312;2022-11-10T10:19:07;95918.56;;;14.28;70.33
11124;BME280;5616;42.692;23.312;2022-11-10T10:25:30;95906.06;;;14.32;70.74
11124;BME280;5616;42.692;23.312;2022-11-10T10:28:19;95914.97;;;14.44;70.27
11124;BME280;5616;42.692;23.312;2022-11-10T10:31:14;95911.75;;;14.56;70.58
11124;BME280;5616;42.692;23.312;2022-11-10T10:34:02;95915.75;;;14.38;69.97
11124;BME280;5616;42.692;23.312;2022-11-10T10:36:48;95916.16;;;14.41;70.31
11124;BME280;5616;42.692;23.312;2022-11-10T10:39:37;95911.03;;;14.48;70.04
11124;BME280;5616;42.692;23.312;2022-11-10T10:42:31;95909.00;;;14.43;70.02
11124;BME280;5616;42.692;23.312;2022-11-10T10:45:18;95902.13;;;14.57;69.57
11124;BME280;5616;42.692;23.312;2022-11-10T10:48:23;95900.28;;;14.72;68.80
11124;BME280;5616;42.692;23.312;2022-11-10T10:51:09;95890.75;;;14.79;68.24
11124;BME280;5616;42.692;23.312;2022-11-10T10:53:55;95893.16;;;14.81;68.75
11124;BME280;5616;42.692;23.312;2022-11-10T10:56:40;95894.44;;;14.91;69.03
11124;BME280;5616;42.692;23.312;2022-11-10T10:59:27;95880.75;;;15.04;69.04
11124;BME280;5616;42.692;23.312;2022-11-10T11:02:23;95880.78;;;15.10;68.41
11124;BME280;5616;42.692;23.312;2022-11-10T11:05:12;95880.78;;;15.10;67.45
11124;BME280;5616;42.692;23.312;2022-11-10T11:07:59;95881.63;;;14.90;68.13
11124;BME280;5616;42.692;23.312;2022-11-10T11:10:45;95873.34;;;15.01;67.60
11124;BME280;5616;42.692;23.312;2022-11-10T11:13:31;95864.94;;;15.05;68.19
11124;BME280;5616;42.692;23.312;2022-11-10T11:16:18;95858.56;;;15.08;67.90
11124;BME280;5616;42.692;23.312;2022-11-10T11:19:04;95870.06;;;15.20;68.24
11124;BME280;5616;42.692;23.312;2022-11-10T11:22:04;95872.13;;;15.31;67.35
11124;BME280;5616;42.692;23.312;2022-11-10T11:24:59;95862.75;;;15.30;66.38
11124;BME280;5616;42.692;23.312;2022-11-10T11:27:55;95861.31;;;15.27;67.66
11124;BME280;5616;42.692;23.312;2022-11-10T11:30:53;95858.31;;;15.30;66.70
11124;BME280;5616;42.692;23.312;2022-11-10T11:33:48;95859.34;;;15.36;67.53
11124;BME280;5616;42.692;23.312;2022-11-10T11:36:40;95860.38;;;15.42;67.95
11124;BME280;5616;42.692;23.312;2022-11-10T11:39:37;95848.78;;;15.44;65.85
11124;BME280;5616;42.692;23.312;2022-11-10T11:42:41;95849.59;;;15.38;65.76
11124;BME280;5616;42.692;23.312;2022-11-10T11:45:38;95845.84;;;15.47;66.94
11124;BME280;5616;42.692;23.312;2022-11-10T11:48:36;95848.66;;;15.52;67.21
11124;BME280;5616;42.692;23.312;2022-11-10T11:51:33;95846.28;;;15.57;65.71
11124;BME280;5616;42.692;23.312;2022-11-10T11:54:27;95838.31;;;15.59;66.42
11124;BME280;5616;42.692;23.312;2022-11-10T11:57:23;95842.94;;;15.63;65.68
11124;BME280;5616;42.692;23.312;2022-11-10T12:00:13;95843.91;;;15.62;66.54
11124;BME280;5616;42.692;23.312;2022-11-10T12:03:15;95849.91;;;15.56;66.31
11124;BME280;5616;42.692;23.312;2022-11-10T12:06:21;95845.88;;;15.54;65.65
11124;BME280;5616;42.692;23.312;2022-11-10T12:09:19;95850.47;;;15.52;65.62
11124;BME280;5616;42.692;23.312;2022-11-10T12:12:31;95845.66;;;15.49;65.56
11124;BME280;5616;42.692;23.312;2022-11-10T12:15:29;95849.47;;;15.53;65.90
11124;BME280;5616;42.692;23.312;2022-11-10T12:18:32;95841.91;;;15.58;66.01
11124;BME280;5616;42.692;23.312;2022-11-10T12:21:23;95842.88;;;15.57;65.94
11124;BME280;5616;42.692;23.312;2022-11-10T12:24:29;95843.53;;;15.65;64.94
11124;BME280;5616;42.692;23.312;2022-11-10T12:27:23;95844.94;;;15.68;65.52
11124;BME280;5616;42.692;23.312;2022-11-10T12:30:12;95844.75;;;15.69;66.28
11124;BME280;5616;42.692;23.312;2022-11-10T12:33:00;95845.75;;;15.68;66.26
11124;BME280;5616;42.692;23.312;2022-11-10T12:35:50;95852.59;;;15.76;65.50
11124;BME280;5616;42.692;23.312;2022-11-10T12:38:43;95846.41;;;15.83;66.03
11124;BME280;5616;42.692;23.312;2022-11-10T12:41:37;95844.44;;;15.85;64.85
11124;BME280;5616;42.692;23.312;2022-11-10T12:44:27;95843.84;;;15.90;64.34
11124;BME280;5616;42.692;23.312;2022-11-10T12:47:18;95843.44;;;15.86;64.78
11124;BME280;5616;42.692;23.312;2022-11-10T12:50:34;95846.44;;;15.90;66.02
11124;BME280;5616;42.692;23.312;2022-11-10T12:53:24;95843.03;;;15.89;64.56
11124;BME280;5616;42.692;23.312;2022-11-10T12:56:16;95843.09;;;15.96;65.11
11124;BME280;5616;42.692;23.312;2022-11-10T12:59:22;95843.47;;;16.00;64.98
11124;BME280;5616;42.692;23.312;2022-11-10T13:02:22;95845.69;;;16.03;64.96
11124;BME280;5616;42.692;23.312;2022-11-10T13:05:17;95845.69;;;16.03;64.56
11124;BME280;5616;42.692;23.312;2022-11-10T13:11:24;95853.75;;;16.14;64.28
11124;BME280;5616;42.692;23.312;2022-11-10T13:14:29;95851.75;;;16.16;64.76
11124;BME280;5616;42.692;23.312;2022-11-10T13:17:52;95856.53;;;16.13;64.26
11124;BME280;5616;42.692;23.312;2022-11-10T13:20:51;95853.75;;;16.14;63.94
11124;BME280;5616;42.692;23.312;2022-11-10T13:24:16;95854.97;;;16.18;63.98
11124;BME280;5616;42.692;23.312;2022-11-10T13:27:04;95850.94;;;16.16;64.74
11124;BME280;5616;42.692;23.312;2022-11-10T13:29:55;95858.53;;;16.11;63.90
11124;BME280;5616;42.692;23.312;2022-11-10T13:32:41;95859.16;;;16.13;63.90
11124;BME280;5616;42.692;23.312;2022-11-10T13:35:51;95857.75;;;16.10;65.51
11124;BME280;5616;42.692;23.312;2022-11-10T13:38:38;95858.13;;;16.07;65.18
11124;BME280;5616;42.692;23.312;2022-11-10T13:41:25;95854.72;;;16.07;65.22
11124;BME280;5616;42.692;23.312;2022-11-10T13:44:19;95859.31;;;16.05;65.48
11124;BME280;5616;42.692;23.312;2022-11-10T13:47:48;95861.31;;;16.03;65.42
11124;BME280;5616;42.692;23.312;2022-11-10T13:50:47;95855.69;;;15.99;65.96
11124;BME280;5616;42.692;23.312;2022-11-10T13:53:39;95863.28;;;15.94;65.82
11124;BME280;5616;42.692;23.312;2022-11-10T13:56:43;95868.09;;;15.90;65.21
11124;BME280;5616;42.692;23.312;2022-11-10T13:59:30;95863.44;;;15.86;65.43
11124;BME280;5616;42.692;23.312;2022-11-10T14:02:49;95866.44;;;15.83;66.38
11124;BME280;5616;42.692;23.312;2022-11-10T14:06:01;95864.59;;;15.70;67.13
11124;BME280;5616;42.692;23.312;2022-11-10T14:08:51;95873.34;;;15.63;67.10
11124;BME280;5616;42.692;23.312;2022-11-10T14:11:41;95872.16;;;15.59;67.26
11124;BME280;5616;42.692;23.312;2022-11-10T14:14:33;95871.13;;;15.53;67.14
11124;BME280;5616;42.692;23.312;2022-11-10T14:17:23;95873.50;;;15.48;67.14
11124;BME280;5616;42.692;23.312;2022-11-10T14:20:22;95866.97;;;15.38;67.90
11124;BME280;5616;42.692;23.312;2022-11-10T14:23:17;95878.75;;;15.33;67.86
11124;BME280;5616;42.692;23.312;2022-11-10T14:26:05;95867.31;;;15.28;68.21
11124;BME280;5616;42.692;23.312;2022-11-10T14:29:26;95873.09;;;15.23;68.45
11124;BME280;5616;42.692;23.312;2022-11-10T14:32:14;95875.03;;;15.15;69.24
11124;BME280;5616;42.692;23.312;2022-11-10T14:35:01;95869.19;;;15.06;69.41
11124;BME280;5616;42.692;23.312;2022-11-10T14:37:48;95883.16;;;15.05;69.36
11124;BME280;5616;42.692;23.312;2022-11-10T14:40:40;95882.13;;;15.00;69.68
11124;BME280;5616;42.692;23.312;2022-11-10T14:43:27;95882.84;;;14.94;70.07
11124;BME280;5616;42.692;23.312;2022-11-10T14:46:14;95880.38;;;14.86;70.84
11124;BME280;5616;42.692;23.312;2022-11-10T14:48:59;95882.75;;;14.81;70.65
11124;BME280;5616;42.692;23.312;2022-11-10T14:51:45;95878.94;;;14.77;70.82
11124;BME280;5616;42.692;23.312;2022-11-10T14:54:32;95882.88;;;14.73;70.60
11124;BME280;5616;42.692;23.312;2022-11-10T14:57:20;95888.84;;;14.66;72.01
11124;BME280;5616;42.692;23.312;2022-11-10T15:00:07;95889.78;;;14.59;72.03
11124;BME280;5616;42.692;23.312;2022-11-10T15:02:57;95893.72;;;14.55;72.24
11124;BME280;5616;42.692;23.312;2022-11-10T15:05:42;95892.47;;;14.51;72.21
11124;BME280;5616;42.692;23.312;2022-11-10T15:08:28;95896.63;;;14.45;72.68